Cinderella 1 — SBLK — position and weather

sailwx.info

Track history (hours):
 
Tides and Currents Weather Stations Pressure Air Temp Water Temp Dewpoint Dewpoint Depression Visibility Wind Speed Wind Dir Waves Ship Positions

Cinderella 1

Last reported at 2016-May-05 08:30 UTC. Time now 2016-May-05 10:27 UTC.
Position N 59°21' E 018°14'.

Length 42 m; draft 1.1 m.

Type: Passenger vessel. MMSI: 265524530.

Date/timePositionNaut miles runAvg speedWind from/ knotsBaromVisibWave heightAir tempDewpointWater temp
2016-May-05 08:30N 59°21' E 018°14'5 5.3
2016-May-05 07:33N 59°20' E 018°05'0 0.0
2016-May-05 06:33N 59°20' E 018°05'0 0.0
2016-May-05 05:33N 59°20' E 018°05'0 0.0
2016-May-05 04:33N 59°20' E 018°05'0 0.0
2016-May-05 03:33N 59°20' E 018°05'0 0.0
2016-May-05 02:33N 59°20' E 018°05'0 0.0
2016-May-05 01:33N 59°20' E 018°05'0 0.0
2016-May-05 00:32N 59°20' E 018°05'0 0.0
2016-May-04 23:33N 59°20' E 018°05'0 0.0
2016-May-04 22:33N 59°20' E 018°05'0 0.0
2016-May-04 21:33N 59°20' E 018°05'0 0.0
2016-May-04 20:33N 59°20' E 018°05'7 1.6
2016-May-04 16:04N 59°23' E 018°18'713.7
2016-May-04 15:33N 59°20' E 018°05'6 5.0
2016-May-04 14:28N 59°22' E 018°15'3 0.7
2016-May-04 10:21N 59°20' E 018°11'3 0.7
2016-May-04 05:33N 59°20' E 018°05'0 0.0
2016-May-04 04:33N 59°20' E 018°05'0 0.0
2016-May-04 03:32N 59°20' E 018°05'0 0.0
2016-May-04 02:24N 59°20' E 018°05'0 0.0
2016-May-04 01:19N 59°20' E 018°05'0 0.0
2016-May-04 00:31N 59°20' E 018°05'0 0.0
2016-May-03 23:32N 59°20' E 018°05'0 0.0
2016-May-03 22:31N 59°20' E 018°05'0 0.0
2016-May-03 19:23N 59°20' E 018°05'0 0.0
2016-May-03 10:30N 59°20' E 018°05'0 0.0
2016-May-03 09:24N 59°20' E 018°05'0 0.0
2016-May-03 08:32N 59°20' E 018°05'0 0.0
2016-May-03 05:33N 59°20' E 018°05'0 0.0
2016-May-03 00:24N 59°20' E 018°05'0 0.0
2016-May-02 22:33N 59°20' E 018°05'0 0.0
2016-May-02 16:32N 59°20' E 018°05'0 0.0
2016-May-02 15:32N 59°20' E 018°05'0 0.0
2016-May-02 13:32N 59°20' E 018°05'0 0.0
2016-May-02 12:28N 59°20' E 018°05'0 0.0
2016-May-02 11:22N 59°20' E 018°05'7 0.3
2016-May-01 15:25N 59°22' E 018°17'3 0.8
2016-May-01 11:24N 59°20' E 018°13'4 0.2
2016-Apr-30 13:14N 59°20' E 018°05'0 0.0
2016-Apr-30 12:32N 59°20' E 018°05'0 0.0
2016-Apr-30 11:33N 59°20' E 018°05'0 0.0
2016-Apr-29 06:09N 59°20' E 018°05'0 0.0
2016-Apr-29 05:33N 59°20' E 018°05'0 0.0
2016-Apr-28 20:13N 59°20' E 018°05'0 0.0
2016-Apr-28 19:34N 59°20' E 018°05'0 0.0
2016-Apr-28 18:33N 59°20' E 018°05'0 0.0
2016-Apr-28 17:33N 59°20' E 018°05'0 0.0
2016-Apr-28 16:22N 59°20' E 018°05'0 0.0
2016-Apr-28 15:28N 59°20' E 018°05'0 0.0
2016-Apr-28 14:31N 59°20' E 018°05'0 0.0
2016-Apr-28 11:29N 59°20' E 018°05'0 0.0
2016-Apr-28 10:29N 59°20' E 018°05'0 0.0
2016-Apr-28 09:34N 59°20' E 018°05'0 0.0
2016-Apr-28 08:34N 59°20' E 018°05'0 0.0
2016-Apr-28 07:33N 59°20' E 018°05'0 0.0
2016-Apr-28 06:28N 59°20' E 018°05'0 0.0
2016-Apr-28 04:26N 59°20' E 018°05'0 0.0
2016-Apr-28 02:09N 59°20' E 018°05'0 0.0
2016-Apr-27 10:29N 59°20' E 018°05'0 0.0
2016-Apr-27 06:16N 59°20' E 018°05'0 0.0
2016-Apr-27 05:30N 59°20' E 018°05'0 0.0
2016-Apr-27 04:33N 59°20' E 018°05'0 0.0
2016-Apr-27 03:34N 59°20' E 018°05'0 0.0
2016-Apr-27 02:34N 59°20' E 018°05'0 0.0
2016-Apr-27 01:33N 59°20' E 018°05'0 0.0
2016-Apr-27 00:33N 59°20' E 018°05'0 0.0
2016-Apr-26 23:34N 59°20' E 018°05'0 0.0
2016-Apr-26 22:33N 59°20' E 018°05'0 0.0
2016-Apr-26 21:33N 59°20' E 018°05'0 0.0
2016-Apr-26 20:32N 59°20' E 018°05'0 0.0
2016-Apr-26 19:33N 59°20' E 018°05'0 0.0
2016-Apr-26 18:32N 59°20' E 018°05'0 0.0
2016-Apr-26 17:33N 59°20' E 018°05'0 0.0
2016-Apr-26 16:30N 59°20' E 018°05'0 0.0
2016-Apr-26 15:21N 59°20' E 018°05'0 0.0
2016-Apr-25 12:34N 59°20' E 018°05'  
Track history (hours):
 
Tides and Currents Weather Stations Pressure Air Temp Water Temp Dewpoint Dewpoint Depression Visibility Wind Speed Wind Dir Waves Ship Positions

Cinderella 1

Last reported at 2016-May-05 08:30 UTC. Time now 2016-May-05 10:27 UTC.
Position N 59°21' E 018°14'.

Length 42 m; draft 1.1 m.

Type: Passenger vessel. MMSI: 265524530.

Date/timePositionNaut miles runAvg speedWind from/ knotsBaromVisibWave heightAir tempDewpointWater temp
2016-May-05 08:30N 59°21' E 018°14'5 5.3
2016-May-05 07:33N 59°20' E 018°05'0 0.0
2016-May-05 06:33N 59°20' E 018°05'0 0.0
2016-May-05 05:33N 59°20' E 018°05'0 0.0
2016-May-05 04:33N 59°20' E 018°05'0 0.0
2016-May-05 03:33N 59°20' E 018°05'0 0.0
2016-May-05 02:33N 59°20' E 018°05'0 0.0
2016-May-05 01:33N 59°20' E 018°05'0 0.0
2016-May-05 00:32N 59°20' E 018°05'0 0.0
2016-May-04 23:33N 59°20' E 018°05'0 0.0
2016-May-04 22:33N 59°20' E 018°05'0 0.0
2016-May-04 21:33N 59°20' E 018°05'0 0.0
2016-May-04 20:33N 59°20' E 018°05'7 1.6
2016-May-04 16:04N 59°23' E 018°18'713.7
2016-May-04 15:33N 59°20' E 018°05'6 5.0
2016-May-04 14:28N 59°22' E 018°15'3 0.7
2016-May-04 10:21N 59°20' E 018°11'3 0.7
2016-May-04 05:33N 59°20' E 018°05'0 0.0
2016-May-04 04:33N 59°20' E 018°05'0 0.0
2016-May-04 03:32N 59°20' E 018°05'0 0.0
2016-May-04 02:24N 59°20' E 018°05'0 0.0
2016-May-04 01:19N 59°20' E 018°05'0 0.0
2016-May-04 00:31N 59°20' E 018°05'0 0.0
2016-May-03 23:32N 59°20' E 018°05'0 0.0
2016-May-03 22:31N 59°20' E 018°05'0 0.0
2016-May-03 19:23N 59°20' E 018°05'0 0.0
2016-May-03 10:30N 59°20' E 018°05'0 0.0
2016-May-03 09:24N 59°20' E 018°05'0 0.0
2016-May-03 08:32N 59°20' E 018°05'0 0.0
2016-May-03 05:33N 59°20' E 018°05'0 0.0
2016-May-03 00:24N 59°20' E 018°05'0 0.0
2016-May-02 22:33N 59°20' E 018°05'0 0.0
2016-May-02 16:32N 59°20' E 018°05'0 0.0
2016-May-02 15:32N 59°20' E 018°05'0 0.0
2016-May-02 13:32N 59°20' E 018°05'0 0.0
2016-May-02 12:28N 59°20' E 018°05'0 0.0
2016-May-02 11:22N 59°20' E 018°05'7 0.3
2016-May-01 15:25N 59°22' E 018°17'3 0.8
2016-May-01 11:24N 59°20' E 018°13'4 0.2
2016-Apr-30 13:14N 59°20' E 018°05'0 0.0
2016-Apr-30 12:32N 59°20' E 018°05'0 0.0
2016-Apr-30 11:33N 59°20' E 018°05'0 0.0
2016-Apr-29 06:09N 59°20' E 018°05'0 0.0
2016-Apr-29 05:33N 59°20' E 018°05'0 0.0
2016-Apr-28 20:13N 59°20' E 018°05'0 0.0
2016-Apr-28 19:34N 59°20' E 018°05'0 0.0
2016-Apr-28 18:33N 59°20' E 018°05'0 0.0
2016-Apr-28 17:33N 59°20' E 018°05'0 0.0
2016-Apr-28 16:22N 59°20' E 018°05'0 0.0
2016-Apr-28 15:28N 59°20' E 018°05'0 0.0
2016-Apr-28 14:31N 59°20' E 018°05'0 0.0
2016-Apr-28 11:29N 59°20' E 018°05'0 0.0
2016-Apr-28 10:29N 59°20' E 018°05'0 0.0
2016-Apr-28 09:34N 59°20' E 018°05'0 0.0
2016-Apr-28 08:34N 59°20' E 018°05'0 0.0
2016-Apr-28 07:33N 59°20' E 018°05'0 0.0
2016-Apr-28 06:28N 59°20' E 018°05'0 0.0
2016-Apr-28 04:26N 59°20' E 018°05'0 0.0
2016-Apr-28 02:09N 59°20' E 018°05'0 0.0
2016-Apr-27 10:29N 59°20' E 018°05'0 0.0
2016-Apr-27 06:16N 59°20' E 018°05'0 0.0
2016-Apr-27 05:30N 59°20' E 018°05'0 0.0
2016-Apr-27 04:33N 59°20' E 018°05'0 0.0
2016-Apr-27 03:34N 59°20' E 018°05'0 0.0
2016-Apr-27 02:34N 59°20' E 018°05'0 0.0
2016-Apr-27 01:33N 59°20' E 018°05'0 0.0
2016-Apr-27 00:33N 59°20' E 018°05'0 0.0
2016-Apr-26 23:34N 59°20' E 018°05'0 0.0
2016-Apr-26 22:33N 59°20' E 018°05'0 0.0
2016-Apr-26 21:33N 59°20' E 018°05'0 0.0
2016-Apr-26 20:32N 59°20' E 018°05'0 0.0
2016-Apr-26 19:33N 59°20' E 018°05'0 0.0
2016-Apr-26 18:32N 59°20' E 018°05'0 0.0
2016-Apr-26 17:33N 59°20' E 018°05'0 0.0
2016-Apr-26 16:30N 59°20' E 018°05'0 0.0
2016-Apr-26 15:21N 59°20' E 018°05'0 0.0
2016-Apr-25 12:34N 59°20' E 018°05'  

Dump ship's entire track history